createdAt,value
2023-08-11T00:13:09.896Z,9.00
2023-08-11T00:28:13.046Z,10.50
2023-08-11T00:43:16.256Z,9.80
2023-08-11T00:58:19.730Z,12.20
2023-08-11T01:13:24.901Z,13.80
2023-08-11T01:28:29.078Z,13.30
2023-08-11T01:43:32.771Z,12.40
2023-08-11T01:58:35.956Z,10.70
2023-08-11T02:13:39.228Z,9.80
2023-08-11T02:28:42.810Z,9.60
2023-08-11T02:43:46.560Z,13.80
2023-08-11T02:58:49.721Z,9.00
2023-08-11T03:13:52.933Z,9.90
2023-08-11T03:28:56.236Z,10.00
2023-08-11T03:43:59.789Z,10.50
2023-08-11T03:59:04.173Z,9.80
2023-08-11T04:14:08.701Z,11.20
2023-08-11T04:29:12.026Z,10.00
2023-08-11T04:44:15.750Z,11.30
2023-08-11T04:59:19.501Z,9.60
2023-08-11T05:14:24.433Z,10.70
2023-08-11T05:29:27.609Z,10.70
2023-08-11T05:44:30.756Z,7.00
2023-08-11T05:59:34.046Z,6.50
2023-08-11T06:14:37.241Z,5.80
2023-08-11T06:29:40.447Z,4.80
2023-08-11T06:44:45.625Z,4.60
2023-08-11T06:59:49.426Z,1.80
2023-08-11T07:14:53.025Z,1.80
2023-08-11T07:29:56.266Z,2.10
2023-08-11T07:44:59.432Z,1.70
2023-08-11T08:00:02.698Z,1.90
2023-08-11T08:15:18.484Z,1.80
2023-08-11T08:30:21.825Z,1.30
2023-08-11T08:45:26.291Z,1.40
2023-08-11T09:00:29.969Z,1.60
2023-08-11T09:15:34.331Z,1.30
2023-08-11T09:30:37.799Z,1.60
2023-08-11T09:45:41.072Z,1.50
2023-08-11T10:00:46.693Z,1.50
2023-08-11T10:15:52.588Z,1.40
2023-08-11T10:31:03.894Z,1.60
2023-08-11T10:46:26.308Z,1.20
2023-08-11T11:01:29.816Z,5.40
2023-08-11T11:16:34.139Z,1.60
2023-08-11T11:31:40.952Z,1.30
2023-08-11T11:46:44.469Z,1.90
2023-08-11T12:01:47.817Z,2.40
2023-08-11T12:16:51.138Z,1.60
2023-08-11T12:31:54.378Z,1.30
2023-08-11T12:46:57.616Z,1.50
2023-08-11T13:02:00.874Z,1.70
2023-08-11T13:17:04.343Z,2.00
2023-08-11T13:32:07.763Z,1.80
2023-08-11T13:47:12.068Z,2.30
2023-08-11T14:02:15.209Z,1.70
2023-08-11T14:17:18.677Z,2.10
2023-08-11T14:32:26.278Z,2.10
2023-08-11T14:47:30.476Z,1.90
2023-08-11T15:02:34.075Z,2.00
2023-08-11T15:17:37.507Z,1.80
2023-08-11T15:32:40.921Z,1.70
2023-08-11T15:47:44.351Z,1.80
2023-08-11T16:02:47.570Z,1.80
2023-08-11T16:17:54.756Z,6.10
2023-08-11T16:33:14.899Z,3.00
2023-08-11T16:48:36.927Z,3.60
2023-08-11T17:03:59.009Z,6.60
2023-08-11T17:19:13.997Z,7.70
2023-08-11T17:34:34.055Z,21.00
2023-08-11T17:49:44.458Z,20.90
2023-08-11T18:04:59.279Z,51.70
2023-08-11T18:20:15.196Z,44.50
2023-08-11T18:51:50.225Z,12.20
2023-08-11T19:07:12.637Z,10.30
2023-08-11T19:22:21.282Z,6.80
2023-08-11T19:37:25.630Z,5.10
2023-08-11T19:52:29.610Z,4.20
2023-08-11T20:07:33.082Z,6.50
2023-08-11T20:22:37.020Z,5.30
2023-08-11T20:37:40.678Z,5.70
2023-08-11T20:52:44.290Z,7.00
2023-08-11T21:07:47.978Z,5.40
2023-08-11T21:22:51.575Z,6.10
2023-08-11T21:37:55.112Z,7.40
2023-08-11T21:53:06.610Z,7.20
2023-08-11T22:08:17.156Z,8.30
2023-08-11T22:23:20.548Z,7.50
2023-08-11T22:38:24.387Z,8.50
2023-08-11T22:53:28.388Z,9.80
2023-08-11T23:08:31.796Z,11.00
2023-08-11T23:23:35.380Z,9.20
2023-08-11T23:38:38.921Z,9.20
2023-08-11T23:53:42.907Z,9.00
